Time;durP1;ratioP1;P1;durP2;ratioP2;P2;SDS_P1;SDS_P2;PMS_P1;PMS_P2;Temp;Humidity;BMP_temperature;BMP_pressure;BME280_temperature;BME280_humidity;BME280_pressure;Samples;Min_cycle;Max_cycle;Signal;HPM_P1;HPM_P2
2022/06/04 00:00:48;;;;;;;2.75;1.67;;;16.20;84.00;;;;;;4950410;28;20119;-37
2022/06/04 00:03:14;;;;;;;1.73;1.63;;;16.10;84.40;;;;;;4951094;28;20035;-37
2022/06/04 00:05:43;;;;;;;2.38;1.80;;;16.10;84.80;;;;;;4949151;29;20826;-38
2022/06/04 00:08:10;;;;;;;1.88;1.45;;;16.10;84.80;;;;;;4950619;28;20458;-38
2022/06/04 00:16:10;;;;;;;3.67;2.20;;;15.90;85.70;;;;;;4950915;29;20058;-36
2022/06/04 00:18:37;;;;;;;3.08;2.30;;;15.90;86.20;;;;;;4950259;28;20694;-36
2022/06/04 00:21:03;;;;;;;2.15;1.75;;;15.80;86.70;;;;;;4949906;28;20031;-36
2022/06/04 00:23:29;;;;;;;2.97;1.70;;;15.70;86.80;;;;;;4950299;28;20042;-37
2022/06/04 00:25:57;;;;;;;2.05;1.85;;;15.70;86.80;;;;;;4950861;28;20027;-37
2022/06/04 00:28:24;;;;;;;3.85;2.10;;;15.60;87.10;;;;;;4949941;28;20040;-37
2022/06/04 00:30:51;;;;;;;3.78;2.15;;;15.60;87.10;;;;;;4950209;28;20050;-38
2022/06/04 00:33:20;;;;;;;2.20;1.80;;;15.50;87.40;;;;;;4950492;28;20023;-37
2022/06/04 00:35:51;;;;;;;1.88;1.73;;;15.50;87.60;;;;;;4949278;29;20341;-37
2022/06/04 00:38:20;;;;;;;2.90;1.90;;;15.50;87.80;;;;;;4950021;28;20429;-36
2022/06/04 00:41:23;;;;;;;4.05;1.88;;;15.40;87.70;;;;;;4950095;28;20055;-36
2022/06/04 00:44:00;;;;;;;2.25;2.00;;;15.40;87.90;;;;;;4950705;29;20042;-36
2022/06/04 00:46:41;;;;;;;2.97;2.08;;;15.40;88.20;;;;;;4949647;28;20085;-37
2022/06/04 00:49:16;;;;;;;2.60;1.70;;;15.30;88.30;;;;;;4930447;29;20027;-36
2022/06/04 00:51:45;;;;;;;2.70;2.00;;;15.20;88.60;;;;;;4947712;29;20106;-37
2022/06/04 00:54:11;;;;;;;2.05;1.88;;;15.20;88.80;;;;;;4931619;29;20036;-37
2022/06/04 00:57:01;;;;;;;3.70;2.40;;;15.20;89.00;;;;;;4943657;29;20298;-38
2022/06/04 00:59:43;;;;;;;2.38;1.95;;;15.10;89.00;;;;;;4949201;28;20055;-36
2022/06/04 01:02:45;;;;;;;3.05;2.17;;;15.10;89.20;;;;;;4950362;28;20035;-38
2022/06/04 01:05:29;;;;;;;2.67;2.20;;;15.00;89.30;;;;;;4949811;29;20046;-39
2022/06/04 01:08:03;;;;;;;3.28;2.25;;;15.00;89.60;;;;;;4945921;29;20023;-37
2022/06/04 01:10:59;;;;;;;2.80;2.00;;;15.00;89.80;;;;;;4948510;28;20023;-37
2022/06/04 01:13:45;;;;;;;3.47;2.53;;;14.90;89.80;;;;;;4949487;29;20038;-36
2022/06/04 01:16:45;;;;;;;5.32;2.42;;;14.90;90.10;;;;;;4949364;28;20057;-36
2022/06/04 01:19:52;;;;;;;3.50;2.30;;;14.80;90.10;;;;;;4942717;29;20541;-38
2022/06/04 01:22:23;;;;;;;3.00;2.42;;;14.80;90.10;;;;;;4941243;29;20051;-35
2022/06/04 01:25:07;;;;;;;5.93;2.40;;;14.80;90.10;;;;;;4949301;29;20384;-38
2022/06/04 01:27:45;;;;;;;4.20;2.85;;;14.80;90.30;;;;;;4948874;29;20291;-37
2022/06/04 01:30:20;;;;;;;4.68;2.22;;;14.80;90.50;;;;;;4949294;29;20114;-36
2022/06/04 01:32:54;;;;;;;2.38;2.17;;;14.80;90.50;;;;;;4948858;28;20110;-37
2022/06/04 01:35:24;;;;;;;4.13;2.42;;;14.70;90.60;;;;;;4949791;28;20134;-37
2022/06/04 01:37:58;;;;;;;3.28;2.60;;;14.70;90.70;;;;;;4948717;29;20061;-37
2022/06/04 01:43:17;;;;;;;3.97;2.55;;;14.70;90.70;;;;;;4949225;29;20377;-36
2022/06/04 01:45:45;;;;;;;3.33;2.55;;;14.70;90.70;;;;;;4948644;29;20047;-36
2022/06/04 01:48:12;;;;;;;3.20;2.17;;;14.70;90.70;;;;;;4949441;28;20019;-37
2022/06/04 01:50:45;;;;;;;4.82;2.90;;;14.70;90.70;;;;;;4949153;29;20035;-35
2022/06/04 01:53:12;;;;;;;3.95;2.75;;;14.80;90.80;;;;;;4947940;29;20102;-36
2022/06/04 01:55:49;;;;;;;3.40;2.50;;;14.80;90.80;;;;;;4948597;28;20502;-37
2022/06/04 01:58:39;;;;;;;4.00;3.10;;;14.80;90.80;;;;;;4948828;28;20043;-37
2022/06/04 02:01:09;;;;;;;4.32;2.90;;;14.80;90.90;;;;;;4949738;28;20027;-36
2022/06/04 02:03:44;;;;;;;5.35;2.67;;;14.70;91.00;;;;;;4948163;28;20035;-36
2022/06/04 02:06:23;;;;;;;5.38;3.25;;;14.70;91.00;;;;;;4947500;28;20167;-37
2022/06/04 02:08:59;;;;;;;5.10;2.80;;;14.70;91.00;;;;;;4948643;28;20371;-37
2022/06/04 02:11:25;;;;;;;4.95;2.90;;;14.60;91.10;;;;;;4948881;28;20064;-37
2022/06/04 02:13:54;;;;;;;5.30;3.33;;;14.60;91.10;;;;;;4947736;28;20119;-38
2022/06/04 02:16:23;;;;;;;4.78;3.03;;;14.60;91.10;;;;;;4948630;28;20084;-37
2022/06/04 02:18:50;;;;;;;3.50;2.92;;;14.60;91.30;;;;;;4948741;29;20043;-37
2022/06/04 02:21:18;;;;;;;4.25;2.78;;;14.60;91.40;;;;;;4947721;28;20045;-37
2022/06/04 02:23:46;;;;;;;4.18;3.00;;;14.60;91.40;;;;;;4948365;28;20071;-37
2022/06/04 02:26:11;;;;;;;5.03;3.42;;;14.50;91.60;;;;;;4949186;28;20031;-36
2022/06/04 02:28:37;;;;;;;4.38;2.80;;;14.50;91.70;;;;;;4947333;28;20111;-36
2022/06/04 02:31:25;;;;;;;4.57;2.80;;;14.50;91.70;;;;;;4948503;29;20023;-37
2022/06/04 02:34:18;;;;;;;4.88;3.20;;;14.40;91.80;;;;;;4948630;29;20043;-37
2022/06/04 02:37:11;;;;;;;5.03;2.80;;;14.40;91.90;;;;;;4940333;29;20035;-36
2022/06/04 02:40:13;;;;;;;4.63;2.60;;;14.40;92.00;;;;;;4947927;28;20462;-35
2022/06/04 02:43:01;;;;;;;4.15;2.65;;;14.40;91.90;;;;;;4947312;29;20065;-37
2022/06/04 02:45:43;;;;;;;2.88;2.60;;;14.40;92.00;;;;;;4947249;28;20027;-36
2022/06/04 02:48:14;;;;;;;4.50;3.03;;;14.40;92.00;;;;;;4929305;29;20024;-37
2022/06/04 02:50:48;;;;;;;4.13;3.05;;;14.40;92.20;;;;;;4944274;29;20323;-36
2022/06/04 02:53:15;;;;;;;3.38;2.72;;;14.40;92.20;;;;;;4948294;29;20507;-37
2022/06/04 02:55:50;;;;;;;5.60;3.17;;;14.30;92.40;;;;;;4946505;29;20060;-36
2022/06/04 02:58:19;;;;;;;5.50;3.05;;;14.30;92.50;;;;;;4947419;29;20514;-37
2022/06/04 03:00:47;;;;;;;4.63;3.17;;;14.30;92.60;;;;;;4947385;28;20071;-36
2022/06/04 03:03:14;;;;;;;6.13;2.80;;;14.30;92.60;;;;;;4947320;28;20034;-36
2022/06/04 03:06:00;;;;;;;3.38;3.08;;;14.30;92.70;;;;;;4947149;28;20039;-36
2022/06/04 03:08:31;;;;;;;5.88;3.72;;;14.30;92.90;;;;;;4947002;29;20218;-37
2022/06/04 03:10:57;;;;;;;6.47;3.15;;;14.20;93.10;;;;;;4947241;28;20015;-36
2022/06/04 03:13:23;;;;;;;8.35;3.60;;;14.10;93.20;;;;;;4947798;29;20039;-39
2022/06/04 03:15:49;;;;;;;6.63;3.80;;;14.10;93.40;;;;;;4947316;28;20360;-36
2022/06/04 03:18:16;;;;;;;3.60;3.03;;;14.10;93.50;;;;;;4946646;28;20035;-37
2022/06/04 03:20:41;;;;;;;3.90;2.92;;;14.00;93.60;;;;;;4947220;28;20058;-36
2022/06/04 03:23:07;;;;;;;6.57;3.60;;;14.00;93.60;;;;;;4947249;29;20078;-35
2022/06/04 03:25:34;;;;;;;4.22;3.03;;;14.00;93.70;;;;;;4947828;28;20077;-37
2022/06/04 03:28:00;;;;;;;6.57;3.90;;;14.00;93.90;;;;;;4947510;28;20035;-37
2022/06/04 03:30:26;;;;;;;6.13;3.10;;;14.00;93.80;;;;;;4946432;29;20521;-35
2022/06/04 03:32:53;;;;;;;5.43;3.30;;;14.00;93.90;;;;;;4947645;28;20122;-36
2022/06/04 03:35:18;;;;;;;6.28;3.35;;;14.00;94.00;;;;;;4947242;28;20031;-36
2022/06/04 03:37:44;;;;;;;3.83;3.33;;;14.00;94.00;;;;;;4946490;29;20035;-37
2022/06/04 03:40:11;;;;;;;3.13;2.83;;;14.00;94.00;;;;;;4948177;29;20031;-37
2022/06/04 03:42:36;;;;;;;5.80;3.22;;;14.00;94.00;;;;;;4947161;28;20035;-35
2022/06/04 03:45:04;;;;;;;4.75;3.17;;;14.00;94.10;;;;;;4947015;29;20023;-37
2022/06/04 03:47:33;;;;;;;4.35;3.28;;;14.00;94.20;;;;;;4947138;28;20027;-36
2022/06/04 03:49:58;;;;;;;4.03;3.08;;;14.00;94.30;;;;;;4947651;28;20027;-37
2022/06/04 03:52:24;;;;;;;4.03;3.00;;;14.00;94.30;;;;;;4945829;29;20055;-41
2022/06/04 03:54:52;;;;;;;5.40;2.97;;;14.00;94.30;;;;;;4947807;29;20109;-36
2022/06/04 03:57:48;;;;;;;6.68;3.92;;;14.00;94.60;;;;;;4946871;29;20105;-37
2022/06/04 04:00:27;;;;;;;4.28;3.40;;;13.90;94.70;;;;;;4946689;28;20031;-36
2022/06/04 04:02:56;;;;;;;5.53;4.22;;;13.90;94.70;;;;;;4947792;28;20043;-37
2022/06/04 04:05:25;;;;;;;4.50;3.67;;;13.90;94.90;;;;;;4946514;28;20113;-37
2022/06/04 04:07:55;;;;;;;7.70;4.63;;;13.90;94.90;;;;;;4946811;28;20415;-36
2022/06/04 04:10:21;;;;;;;6.95;4.32;;;13.90;95.10;;;;;;4947044;28;20112;-36
2022/06/04 04:12:46;;;;;;;5.18;3.53;;;13.80;95.20;;;;;;4945921;28;20031;-36
2022/06/04 04:15:13;;;;;;;4.28;3.00;;;13.80;95.20;;;;;;4947343;29;20093;-36
2022/06/04 04:17:40;;;;;;;6.97;4.13;;;13.80;95.30;;;;;;4947468;28;20455;-37
2022/06/04 04:20:10;;;;;;;6.50;3.80;;;13.80;95.50;;;;;;4946506;28;20430;-34
2022/06/04 04:22:36;;;;;;;5.20;3.75;;;13.80;95.50;;;;;;4946204;28;20157;-37
2022/06/04 04:25:04;;;;;;;6.28;4.13;;;13.90;95.80;;;;;;4947127;29;20023;-35
2022/06/04 04:27:29;;;;;;;5.30;3.95;;;13.80;95.60;;;;;;4946007;28;20506;-34
2022/06/04 04:29:55;;;;;;;4.60;3.70;;;13.90;95.70;;;;;;4949737;28;20042;-36
2022/06/04 04:32:20;;;;;;;4.80;3.83;;;13.90;95.80;;;;;;4950246;29;20031;-36
2022/06/04 04:34:46;;;;;;;6.80;4.63;;;13.90;95.70;;;;;;4949495;28;20035;-36
2022/06/04 04:37:11;;;;;;;6.63;3.90;;;13.90;95.80;;;;;;4950462;29;20090;-37
2022/06/04 04:39:37;;;;;;;6.47;4.05;;;13.80;96.30;;;;;;4950039;29;20027;-36
2022/06/04 04:42:03;;;;;;;6.78;4.63;;;13.80;96.00;;;;;;4949723;28;20502;-35
2022/06/04 04:44:29;;;;;;;5.88;4.10;;;13.80;96.20;;;;;;4949298;29;20078;-36
2022/06/04 04:46:54;;;;;;;4.95;3.90;;;13.80;96.20;;;;;;4950585;29;20035;-37
2022/06/04 04:49:20;;;;;;;7.03;4.50;;;13.80;96.10;;;;;;4949343;28;20066;-37
2022/06/04 04:51:46;;;;;;;7.10;3.65;;;13.90;96.30;;;;;;4949654;28;20094;-37
2022/06/04 04:54:15;;;;;;;7.50;4.50;;;13.90;96.20;;;;;;4950310;29;20054;-36
2022/06/04 04:56:41;;;;;;;5.28;4.55;;;13.90;96.40;;;;;;4948683;28;20042;-37
2022/06/04 04:59:08;;;;;;;6.43;4.00;;;13.90;96.30;;;;;;4949880;29;20032;-36
2022/06/04 05:01:34;;;;;;;6.25;4.15;;;14.00;96.40;;;;;;4949167;28;20074;-36
2022/06/04 05:03:59;;;;;;;7.10;4.03;;;14.00;96.50;;;;;;4949524;29;20115;-37
2022/06/04 05:06:25;;;;;;;5.15;3.75;;;14.00;96.50;;;;;;4949292;29;20113;-36
2022/06/04 05:08:54;;;;;;;6.22;4.55;;;14.10;96.60;;;;;;4949357;29;20030;-38
2022/06/04 05:11:23;;;;;;;9.48;5.18;;;14.10;96.60;;;;;;4949034;28;20093;-38
2022/06/04 05:13:49;;;;;;;6.78;4.28;;;14.20;96.60;;;;;;4949885;28;20070;-36
2022/06/04 05:16:23;;;;;;;6.72;4.18;;;14.30;96.60;;;;;;4948732;29;20538;-36
2022/06/04 05:18:48;;;;;;;6.13;3.92;;;14.30;96.50;;;;;;4949486;29;20490;-37
2022/06/04 05:21:36;;;;;;;5.22;3.92;;;14.30;96.50;;;;;;4949103;29;20055;-37
2022/06/04 05:24:05;;;;;;;5.93;3.97;;;14.40;96.50;;;;;;4948819;29;20062;-36
2022/06/04 05:26:34;;;;;;;4.93;3.95;;;14.40;96.40;;;;;;4949228;28;20027;-37
2022/06/04 05:28:59;;;;;;;5.45;3.38;;;14.60;96.40;;;;;;4950002;29;20031;-35
2022/06/04 05:31:25;;;;;;;4.78;3.38;;;14.60;96.30;;;;;;4948652;29;20026;-37
2022/06/04 05:33:51;;;;;;;7.97;4.05;;;14.60;96.30;;;;;;4950296;29;20129;-36
2022/06/04 05:36:16;;;;;;;5.32;4.00;;;14.70;96.20;;;;;;4948850;28;20039;-36
2022/06/04 05:38:42;;;;;;;7.05;4.30;;;14.80;96.20;;;;;;4948867;29;20031;-37
2022/06/04 05:41:13;;;;;;;5.25;3.80;;;14.80;96.20;;;;;;4948331;28;20019;-37
2022/06/04 05:43:41;;;;;;;7.63;4.40;;;14.90;96.20;;;;;;4948756;28;20023;-37
2022/06/04 05:46:10;;;;;;;5.88;4.47;;;14.90;96.30;;;;;;4949475;28;20054;-37
2022/06/04 05:48:43;;;;;;;6.45;3.85;;;14.90;96.20;;;;;;4948414;28;20194;-37
2022/06/04 05:51:10;;;;;;;5.88;4.07;;;14.90;96.20;;;;;;4948150;28;20024;-36
2022/06/04 05:53:36;;;;;;;7.32;4.85;;;15.00;96.20;;;;;;4948793;28;20770;-36
2022/06/04 05:56:02;;;;;;;4.43;3.60;;;15.00;96.20;;;;;;4949133;29;20535;-36
2022/06/04 05:58:27;;;;;;;6.13;4.15;;;15.10;96.10;;;;;;4948016;28;20031;-36
2022/06/04 06:01:01;;;;;;;6.68;4.88;;;15.10;96.00;;;;;;4949184;29;20476;-37
2022/06/04 06:03:27;;;;;;;7.30;4.20;;;15.10;96.00;;;;;;4948932;28;20023;-36
2022/06/04 06:05:52;;;;;;;4.35;3.50;;;15.10;96.00;;;;;;4949076;29;20083;-38
2022/06/04 06:08:18;;;;;;;5.70;4.30;;;15.10;96.00;;;;;;4948908;29;20356;-37
2022/06/04 06:10:44;;;;;;;7.72;4.20;;;15.10;96.10;;;;;;4949061;29;20077;-37
2022/06/04 06:13:11;;;;;;;5.80;4.03;;;15.10;96.20;;;;;;4948065;29;20023;-36
2022/06/04 06:15:37;;;;;;;6.82;4.22;;;15.10;96.10;;;;;;4948895;28;20027;-38
2022/06/04 06:18:04;;;;;;;8.10;4.50;;;15.10;96.10;;;;;;4948810;28;20039;-36
2022/06/04 06:20:30;;;;;;;5.18;4.07;;;15.20;96.20;;;;;;4948265;28;20487;-36
2022/06/04 06:22:55;;;;;;;4.93;3.60;;;15.20;96.10;;;;;;4948645;28;20106;-36
2022/06/04 06:25:21;;;;;;;6.05;3.50;;;15.30;96.00;;;;;;4948019;29;20206;-36
2022/06/04 06:27:47;;;;;;;4.25;3.70;;;15.40;96.00;;;;;;4947672;29;20058;-37
2022/06/04 06:30:13;;;;;;;3.55;3.22;;;15.50;95.90;;;;;;4948542;28;20070;-37
2022/06/04 06:32:40;;;;;;;4.15;3.60;;;15.60;95.80;;;;;;4948048;28;20094;-37
2022/06/04 06:35:07;;;;;;;5.38;3.80;;;15.70;95.70;;;;;;4947875;28;20030;-37
2022/06/04 06:37:33;;;;;;;4.80;3.97;;;15.70;95.70;;;;;;4947656;28;20683;-38
2022/06/04 06:40:03;;;;;;;6.10;4.05;;;15.80;95.70;;;;;;4947802;29;20138;-37
2022/06/04 06:42:28;;;;;;;8.02;4.15;;;15.70;95.70;;;;;;4947564;28;20042;-37
2022/06/04 06:44:57;;;;;;;5.47;4.30;;;15.70;95.70;;;;;;4948861;28;20024;-37
2022/06/04 06:47:22;;;;;;;4.40;3.65;;;15.70;95.70;;;;;;4946533;29;20071;-37
2022/06/04 06:49:48;;;;;;;5.57;3.85;;;15.80;95.70;;;;;;4948937;28;20497;-36
2022/06/04 06:52:16;;;;;;;4.50;3.88;;;15.80;95.70;;;;;;4947545;28;20494;-37
2022/06/04 06:54:42;;;;;;;5.82;3.67;;;15.80;95.70;;;;;;4947562;28;20031;-36
2022/06/04 06:57:10;;;;;;;4.70;3.97;;;15.80;95.70;;;;;;4948249;28;20027;-36
2022/06/04 06:59:37;;;;;;;6.75;4.03;;;15.80;95.70;;;;;;4947040;28;20466;-37
2022/06/04 07:02:03;;;;;;;4.57;3.55;;;15.80;95.70;;;;;;4947681;28;20034;-36
2022/06/04 07:04:29;;;;;;;6.20;3.90;;;15.80;95.70;;;;;;4947028;28;20050;-36
2022/06/04 07:07:00;;;;;;;3.67;3.35;;;15.90;95.70;;;;;;4947957;28;20027;-36
2022/06/04 07:09:38;;;;;;;6.15;4.30;;;15.90;95.70;;;;;;4946681;28;20101;-36
2022/06/04 07:12:08;;;;;;;7.10;4.10;;;15.90;95.70;;;;;;4947358;28;20045;-36
2022/06/04 07:14:34;;;;;;;6.28;4.35;;;15.80;95.70;;;;;;4947184;28;20033;-37
2022/06/04 07:17:00;;;;;;;6.80;4.40;;;15.80;95.80;;;;;;4947707;29;20027;-37
2022/06/04 07:19:28;;;;;;;4.78;3.65;;;15.90;95.80;;;;;;4947163;28;20031;-36
2022/06/04 07:21:56;;;;;;;7.40;4.35;;;15.90;95.80;;;;;;4948538;29;20069;-37
2022/06/04 07:24:22;;;;;;;5.75;4.22;;;15.90;95.90;;;;;;4946291;28;20057;-38
2022/06/04 07:26:52;;;;;;;6.30;4.32;;;15.80;95.90;;;;;;4947158;28;20048;-38
2022/06/04 07:29:18;;;;;;;4.70;3.80;;;15.90;95.90;;;;;;4946683;28;20034;-36
2022/06/04 07:31:44;;;;;;;5.30;4.43;;;15.90;95.90;;;;;;4947321;28;20107;-35
2022/06/04 07:34:10;;;;;;;7.18;4.30;;;15.90;95.90;;;;;;4947270;29;20475;-37
2022/06/04 07:36:44;;;;;;;7.50;4.63;;;16.00;95.90;;;;;;4946326;28;20042;-36
2022/06/04 07:39:12;;;;;;;6.63;4.30;;;16.00;95.90;;;;;;4943648;28;20554;-37
2022/06/04 07:41:43;;;;;;;3.97;3.53;;;16.10;95.90;;;;;;4945770;28;20110;-36
2022/06/04 07:44:09;;;;;;;6.80;4.90;;;16.20;95.90;;;;;;4945847;28;20046;-37
2022/06/04 07:46:35;;;;;;;4.88;3.95;;;16.20;95.80;;;;;;4946782;29;20034;-38
2022/06/04 07:49:04;;;;;;;5.82;3.92;;;16.30;95.80;;;;;;4945688;29;20056;-37
2022/06/04 07:51:30;;;;;;;3.83;3.10;;;16.40;95.80;;;;;;4944638;28;20454;-37
2022/06/04 07:53:56;;;;;;;4.97;3.80;;;16.40;95.70;;;;;;4946868;28;20039;-37
2022/06/04 07:56:23;;;;;;;5.20;4.25;;;16.50;95.60;;;;;;4946283;29;20032;-35
2022/06/04 07:58:51;;;;;;;4.80;3.65;;;16.60;95.50;;;;;;4945513;28;20118;-36
2022/06/04 08:01:19;;;;;;;4.03;3.35;;;16.70;95.50;;;;;;4946209;28;20102;-36
2022/06/04 08:03:47;;;;;;;6.22;3.42;;;16.80;95.40;;;;;;4947325;28;20499;-38
2022/06/04 08:06:15;;;;;;;4.78;4.00;;;16.80;95.40;;;;;;4949576;28;20035;-36
2022/06/04 08:08:41;;;;;;;4.82;3.85;;;16.90;95.30;;;;;;4950250;28;20027;-37
2022/06/04 08:13:51;;;;;;;6.35;4.13;;;17.00;95.10;;;;;;4950030;29;20046;-37
2022/06/04 08:16:18;;;;;;;5.25;3.60;;;17.10;95.10;;;;;;4949970;28;20035;-37
2022/06/04 08:18:43;;;;;;;6.80;4.35;;;17.10;95.00;;;;;;4948896;28;20049;-37
2022/06/04 08:21:09;;;;;;;5.72;3.85;;;17.20;94.90;;;;;;4949810;28;20023;-35
2022/06/04 08:23:35;;;;;;;6.72;3.38;;;17.30;94.90;;;;;;4949503;29;20031;-38
2022/06/04 08:26:01;;;;;;;4.10;3.72;;;17.40;94.90;;;;;;4949223;28;20023;-36
2022/06/04 08:28:27;;;;;;;5.95;4.22;;;17.40;94.80;;;;;;4949167;29;20657;-37
2022/06/04 08:31:05;;;;;;;5.20;4.10;;;17.50;94.70;;;;;;4950705;29;20296;-37
2022/06/04 08:33:34;;;;;;;4.03;3.63;;;17.50;94.60;;;;;;4948725;28;20031;-38
2022/06/04 08:35:59;;;;;;;4.85;3.80;;;17.50;94.50;;;;;;4949710;28;20090;-35
2022/06/04 08:38:25;;;;;;;5.28;3.90;;;17.60;94.50;;;;;;4948965;29;20043;-36
2022/06/04 08:40:54;;;;;;;4.50;3.47;;;17.60;94.50;;;;;;4949398;29;20031;-38
2022/06/04 08:43:45;;;;;;;4.63;3.60;;;17.60;94.40;;;;;;4949324;28;20423;-37
2022/06/04 08:46:24;;;;;;;5.70;3.78;;;17.70;94.40;;;;;;4950206;28;20391;-36
2022/06/04 08:48:50;;;;;;;4.28;3.67;;;17.90;94.30;;;;;;4939227;29;20044;-38
2022/06/04 08:51:25;;;;;;;5.25;3.55;;;17.90;94.20;;;;;;4948813;29;20038;-37
2022/06/04 08:53:58;;;;;;;5.10;3.53;;;18.00;94.20;;;;;;4948325;28;20106;-36
2022/06/04 08:59:49;;;;;;;4.03;3.63;;;18.20;94.00;;;;;;4948983;29;20102;-36
2022/06/04 09:02:25;;;;;;;4.30;3.90;;;18.30;93.90;;;;;;4948269;28;20083;-37
2022/06/04 09:04:53;;;;;;;6.70;4.15;;;18.30;93.70;;;;;;4949248;28;20039;-38
2022/06/04 09:07:40;;;;;;;4.10;3.15;;;18.40;93.70;;;;;;4950326;28;20035;-37
2022/06/04 09:10:18;;;;;;;4.15;3.55;;;18.50;93.70;;;;;;4949932;29;20023;-36
2022/06/04 09:12:49;;;;;;;5.13;3.67;;;18.60;93.60;;;;;;4949493;29;20027;-37
2022/06/04 09:15:31;;;;;;;4.78;3.50;;;18.60;93.50;;;;;;4947763;28;20027;-39
2022/06/04 09:17:59;;;;;;;7.20;3.40;;;18.70;93.40;;;;;;4950066;28;20099;-37
2022/06/04 09:20:37;;;;;;;5.18;3.92;;;18.70;93.20;;;;;;4949135;28;20067;-36
2022/06/04 09:23:29;;;;;;;4.38;3.47;;;18.80;93.20;;;;;;4948783;28;20074;-37
2022/06/04 09:26:08;;;;;;;3.45;2.80;;;18.90;93.10;;;;;;4950570;29;20035;-35
2022/06/04 09:29:02;;;;;;;4.20;3.50;;;18.90;93.00;;;;;;4949639;29;20082;-37
2022/06/04 09:32:05;;;;;;;4.45;3.28;;;19.00;93.00;;;;;;4949410;29;20047;-38
2022/06/04 09:34:37;;;;;;;4.20;3.15;;;19.10;92.90;;;;;;4949285;29;20033;-39
2022/06/04 09:37:06;;;;;;;3.03;2.65;;;19.20;92.80;;;;;;4949112;28;20027;-38
2022/06/04 09:39:34;;;;;;;5.57;2.88;;;19.20;92.80;;;;;;4949277;28;20061;-37
2022/06/04 09:42:06;;;;;;;6.47;3.25;;;19.40;92.80;;;;;;4949426;28;20486;-37
2022/06/04 09:44:36;;;;;;;4.60;3.55;;;19.40;92.50;;;;;;4948216;28;20024;-37
2022/06/04 09:47:05;;;;;;;5.95;3.20;;;19.40;92.40;;;;;;4929818;29;20079;-37
2022/06/04 09:49:49;;;;;;;3.28;2.97;;;19.50;92.40;;;;;;4943014;29;20027;-36
2022/06/04 09:52:40;;;;;;;3.85;3.03;;;19.60;92.40;;;;;;4948597;28;20438;-38
2022/06/04 09:55:22;;;;;;;3.90;3.25;;;19.60;92.30;;;;;;4949352;28;20023;-36
2022/06/04 09:58:18;;;;;;;4.28;3.25;;;19.70;92.20;;;;;;4948732;28;20122;-37
2022/06/04 10:01:03;;;;;;;3.85;2.97;;;19.70;92.10;;;;;;4949232;28;20067;-37
2022/06/04 10:03:31;;;;;;;4.35;2.92;;;19.80;91.90;;;;;;4948570;28;20023;-37
2022/06/04 10:06:16;;;;;;;5.05;3.28;;;19.80;91.70;;;;;;4945507;29;20114;-37
2022/06/04 10:11:49;;;;;;;4.03;2.83;;;20.00;91.60;;;;;;4948594;29;20110;-36
2022/06/04 10:14:15;;;;;;;5.15;3.92;;;20.00;91.60;;;;;;4948639;28;20090;-37
2022/06/04 10:16:44;;;;;;;5.03;3.75;;;20.10;91.30;;;;;;4948870;28;20031;-37
2022/06/04 10:19:12;;;;;;;4.63;3.20;;;20.20;91.10;;;;;;4948051;28;20035;-37
2022/06/04 10:21:41;;;;;;;4.07;3.17;;;20.20;91.00;;;;;;4948696;28;20027;-37
2022/06/04 10:24:31;;;;;;;5.13;2.97;;;20.30;90.90;;;;;;4948916;28;20228;-36
2022/06/04 10:27:06;;;;;;;5.18;2.90;;;20.40;90.90;;;;;;4947240;28;20031;-37
2022/06/04 10:29:37;;;;;;;4.10;2.40;;;20.50;90.70;;;;;;4948092;28;20442;-38
2022/06/04 10:32:10;;;;;;;2.97;2.50;;;20.60;90.70;;;;;;4947885;28;20030;-37
2022/06/04 10:34:42;;;;;;;3.72;2.90;;;20.80;90.70;;;;;;4948031;28;20047;-37
2022/06/04 10:37:41;;;;;;;3.83;2.60;;;20.90;90.50;;;;;;4948623;28;20027;-37
2022/06/04 10:40:59;;;;;;;3.40;3.10;;;21.00;90.40;;;;;;4947216;29;20043;-37
2022/06/04 10:43:52;;;;;;;5.63;3.33;;;21.10;89.10;;;;;;4944338;29;20459;-37
2022/06/04 10:46:41;;;;;;;4.65;3.00;;;21.00;89.00;;;;;;4947074;29;20510;-38
2022/06/04 10:49:31;;;;;;;4.82;2.65;;;21.10;88.90;;;;;;4929198;29;20039;-37
2022/06/04 10:52:19;;;;;;;4.65;3.00;;;21.10;88.90;;;;;;4945222;29;20067;-38
2022/06/04 10:55:04;;;;;;;2.58;2.38;;;21.10;88.60;;;;;;4948022;29;20027;-37
2022/06/04 10:57:52;;;;;;;4.13;2.90;;;21.20;88.30;;;;;;4946612;29;20038;-38
2022/06/04 11:00:31;;;;;;;6.53;2.88;;;21.10;87.80;;;;;;4947109;28;20566;-37
2022/06/04 11:02:59;;;;;;;4.20;3.05;;;21.10;87.70;;;;;;4943135;29;20047;-38
2022/06/04 11:05:39;;;;;;;4.20;2.85;;;21.20;87.70;;;;;;4947692;29;20062;-37
2022/06/04 11:08:17;;;;;;;2.90;2.60;;;21.20;87.80;;;;;;4944720;29;20439;-36
2022/06/04 11:10:52;;;;;;;3.35;2.85;;;21.40;87.90;;;;;;4947444;28;20420;-36
2022/06/04 11:13:25;;;;;;;5.72;3.50;;;21.40;87.10;;;;;;4945221;29;20048;-37
2022/06/04 11:16:09;;;;;;;4.93;2.83;;;21.50;86.40;;;;;;4947529;29;20537;-36
2022/06/04 11:18:50;;;;;;;2.60;2.13;;;21.50;86.40;;;;;;4945935;29;20043;-36
2022/06/04 11:21:21;;;;;;;2.60;2.30;;;21.60;86.60;;;;;;4947275;28;20023;-36
2022/06/04 11:24:02;;;;;;;2.37;2.17;;;21.70;86.80;;;;;;4947721;29;20489;-37
2022/06/04 11:26:55;;;;;;;3.80;2.92;;;21.90;86.70;;;;;;4948276;28;20538;-36
2022/06/04 11:29:21;;;;;;;4.22;2.65;;;22.00;86.10;;;;;;4937751;29;20025;-38
2022/06/04 11:32:11;;;;;;;3.63;2.58;;;22.10;86.20;;;;;;4947147;28;20078;-38
2022/06/04 11:34:55;;;;;;;3.05;2.70;;;22.10;86.00;;;;;;4946898;28;20477;-38
2022/06/04 11:37:24;;;;;;;3.25;2.92;;;22.10;85.60;;;;;;4946434;28;20039;-38
2022/06/04 11:40:07;;;;;;;3.50;2.80;;;22.10;85.50;;;;;;4950919;29;20023;-37
2022/06/04 11:42:53;;;;;;;2.15;2.05;;;22.10;85.80;;;;;;4950178;28;20054;-36
2022/06/04 11:45:38;;;;;;;2.70;2.50;;;22.10;86.10;;;;;;4951068;29;20356;-38
2022/06/04 11:48:21;;;;;;;5.00;3.08;;;22.10;85.80;;;;;;4951632;29;20110;-37
2022/06/04 11:51:09;;;;;;;3.22;2.80;;;22.10;85.00;;;;;;4950463;28;20031;-37
2022/06/04 11:53:48;;;;;;;2.80;2.60;;;22.10;84.50;;;;;;4950306;28;20134;-37
2022/06/04 11:56:38;;;;;;;3.92;2.45;;;22.10;84.90;;;;;;4951840;29;20034;-38
2022/06/04 11:59:49;;;;;;;2.70;2.45;;;22.10;84.90;;;;;;4951395;28;20039;-37
2022/06/04 12:02:27;;;;;;;2.20;1.90;;;22.20;84.80;;;;;;4927155;29;20431;-37
2022/06/04 12:05:01;;;;;;;4.20;2.40;;;22.20;84.90;;;;;;4949903;28;20477;-38
2022/06/04 12:07:37;;;;;;;2.40;2.20;;;22.40;84.70;;;;;;4950882;29;20514;-39
2022/06/04 12:10:14;;;;;;;2.83;2.40;;;22.40;84.60;;;;;;4951182;29;20020;-38
2022/06/04 12:13:04;;;;;;;3.80;2.78;;;22.50;84.00;;;;;;4950123;28;20390;-38
2022/06/04 12:15:40;;;;;;;2.83;2.40;;;22.50;83.60;;;;;;4950954;29;20031;-37
2022/06/04 12:18:44;;;;;;;2.33;2.13;;;22.60;83.60;;;;;;4950130;28;20157;-37
2022/06/04 12:24:27;;;;;;;2.70;2.30;;;22.70;83.60;;;;;;4950636;29;20037;-39
2022/06/04 12:27:16;;;;;;;3.60;2.63;;;22.80;83.40;;;;;;4950577;29;20031;-38
2022/06/04 12:29:51;;;;;;;2.33;2.10;;;22.90;83.30;;;;;;4950528;28;20446;-37
2022/06/04 12:32:29;;;;;;;2.72;1.85;;;23.10;83.10;;;;;;4950002;29;20431;-38
2022/06/04 12:35:04;;;;;;;2.60;2.40;;;23.20;83.20;;;;;;4951237;28;20027;-38
2022/06/04 12:37:35;;;;;;;2.85;2.22;;;23.30;82.70;;;;;;4950606;29;20035;-37
2022/06/04 12:40:14;;;;;;;2.40;2.20;;;23.40;82.50;;;;;;4950486;28;20030;-36
2022/06/04 12:42:45;;;;;;;3.42;2.70;;;23.50;82.30;;;;;;4950259;29;20027;-37
2022/06/04 12:45:45;;;;;;;2.55;2.28;;;23.60;82.00;;;;;;4951057;28;20030;-38
2022/06/04 12:48:53;;;;;;;3.55;1.95;;;23.60;82.10;;;;;;4947116;28;20423;-37
2022/06/04 12:51:34;;;;;;;3.17;2.22;;;23.60;82.10;;;;;;4941621;29;20086;-37
2022/06/04 12:54:05;;;;;;;3.65;2.40;;;23.60;81.60;;;;;;4949161;29;20537;-37
2022/06/04 12:56:38;;;;;;;2.30;2.10;;;23.50;81.70;;;;;;4948969;29;20549;-37
2022/06/04 12:59:22;;;;;;;2.70;2.50;;;23.50;81.40;;;;;;4950720;28;20134;-38
2022/06/04 13:01:48;;;;;;;3.47;2.78;;;23.50;81.40;;;;;;4949439;28;20039;-39
2022/06/04 13:04:13;;;;;;;3.95;2.30;;;23.60;81.40;;;;;;4949860;29;20027;-38
2022/06/04 13:07:02;;;;;;;2.63;2.40;;;23.60;80.70;;;;;;4949238;29;20035;-39
2022/06/04 13:09:38;;;;;;;3.83;2.25;;;23.60;80.80;;;;;;4950058;29;20038;-37
2022/06/04 13:12:12;;;;;;;2.83;2.28;;;23.60;81.00;;;;;;4949992;28;20015;-38
2022/06/04 13:14:49;;;;;;;4.47;2.35;;;23.50;81.00;;;;;;4949315;28;20086;-38
2022/06/04 13:17:31;;;;;;;2.45;2.22;;;23.50;81.20;;;;;;4949548;29;20027;-38
2022/06/04 13:20:08;;;;;;;;;;;23.40;81.00;;;;;;4950196;28;20151;-37
2022/06/04 13:22:42;;;;;;;3.05;2.60;;;23.40;80.90;;;;;;4948422;28;19993;-37
2022/06/04 13:25:29;;;;;;;7.60;2.70;;;23.40;80.50;;;;;;4950183;28;20279;-37
2022/06/04 13:27:55;;;;;;;2.47;2.28;;;23.40;80.40;;;;;;4947707;28;20072;-38
2022/06/04 13:30:32;;;;;;;2.80;2.40;;;23.40;80.50;;;;;;4949255;28;20034;-37
2022/06/04 13:33:07;;;;;;;2.90;1.95;;;23.30;81.10;;;;;;4947527;29;20435;-38
2022/06/04 13:35:37;;;;;;;2.70;2.00;;;23.40;80.40;;;;;;4948547;28;20607;-38
2022/06/04 13:38:05;;;;;;;2.97;2.60;;;23.40;80.40;;;;;;4949958;28;20035;-37
2022/06/04 13:40:31;;;;;;;2.20;1.98;;;23.40;80.20;;;;;;4949344;28;20027;-37